Butte Creek, California
Current Conditions -  °F | °C
As of 4:52 PM on Friday 24 Oct 2014 (Local Time) from KCIC Reporting Station
Broken Clouds Broken Clouds  
Wind Chill: 75°   Ceiling: 20000
Heat Index: 75°   Visibility: 10mi
Dew Point: 48°   Wind: 14mph
Humidity: 38%   Direction: 150°SSE
Pressure: 29.86"   Gusts: NA
Location:  39.71°N, 121.809°W
Report Text: KCIC 242352Z 15012KT 10SM BKN200 24/09 A2986
Loading
Personal Weather Stations






























Interactive Weather Map
Tropical Storm Tracking
New forecast layout! Learn more

10-Day Weather Forecast

Advertisements
Track Severe Weather on mobile